createdAt,value
2023-02-19T00:01:49.850Z,41.92
2023-02-19T00:04:19.871Z,42.15
2023-02-19T00:06:48.693Z,42.07
2023-02-19T00:09:18.150Z,42.05
2023-02-19T00:11:48.750Z,42.42
2023-02-19T00:14:21.272Z,42.13
2023-02-19T00:16:50.848Z,42.14
2023-02-19T00:19:20.793Z,42.35
2023-02-19T00:21:53.351Z,42.36
2023-02-19T00:24:22.154Z,42.14
2023-02-19T00:26:50.363Z,42.71
2023-02-19T00:29:20.366Z,42.71
2023-02-19T00:31:51.301Z,42.82
2023-02-19T00:34:19.003Z,42.91
2023-02-19T00:36:49.926Z,43.09
2023-02-19T00:39:21.529Z,43.17
2023-02-19T00:41:48.700Z,43.04
2023-02-19T00:44:15.891Z,42.98
2023-02-19T00:46:49.946Z,43.19
2023-02-19T00:49:21.843Z,43.29
2023-02-19T00:51:51.253Z,43.17
2023-02-19T00:54:21.073Z,43.70
2023-02-19T00:56:48.202Z,43.66
2023-02-19T00:59:16.419Z,43.93
2023-02-19T01:01:47.383Z,44.03
2023-02-19T01:04:14.541Z,43.90
2023-02-19T01:06:43.741Z,43.90
2023-02-19T01:09:13.160Z,43.94
2023-02-19T01:11:42.685Z,43.85
2023-02-19T01:14:11.015Z,43.86
2023-02-19T01:16:40.719Z,43.99
2023-02-19T01:19:07.917Z,43.93
2023-02-19T01:21:35.115Z,43.68
2023-02-19T01:24:04.421Z,43.97
2023-02-19T01:26:33.374Z,44.08
2023-02-19T01:29:03.904Z,44.19
2023-02-19T01:31:33.721Z,43.95
2023-02-19T01:34:02.898Z,43.73
2023-02-19T01:36:33.956Z,43.95
2023-02-19T01:39:04.328Z,43.90
2023-02-19T01:41:35.802Z,44.14
2023-02-19T01:44:06.555Z,43.82
2023-02-19T01:46:35.457Z,43.99
2023-02-19T01:49:08.837Z,43.98
2023-02-19T01:51:41.038Z,44.19
2023-02-19T01:54:14.256Z,44.16
2023-02-19T01:56:44.976Z,44.34
2023-02-19T01:59:13.982Z,44.76
2023-02-19T02:01:42.426Z,44.71
2023-02-19T02:04:15.779Z,51.33
2023-02-19T02:06:50.399Z,44.78
2023-02-19T02:09:21.227Z,44.46
2023-02-19T02:11:51.580Z,45.59
2023-02-19T02:14:26.010Z,45.32
2023-02-19T02:17:01.960Z,44.81
2023-02-19T02:20:00.002Z,46.73
2023-02-19T02:22:35.681Z,44.55
2023-02-19T02:25:35.802Z,45.70
2023-02-19T02:28:23.440Z,47.01
2023-02-19T02:30:56.503Z,43.09
2023-02-19T02:33:33.696Z,44.75
2023-02-19T02:36:07.258Z,43.00
2023-02-19T02:38:40.621Z,43.96
2023-02-19T02:41:09.792Z,44.21
2023-02-19T02:43:37.123Z,41.79
2023-02-19T02:46:06.539Z,42.48
2023-02-19T02:48:44.062Z,43.31
2023-02-19T02:51:19.261Z,42.95
2023-02-19T02:53:52.257Z,42.47
2023-02-19T02:56:21.020Z,42.78
2023-02-19T02:58:51.439Z,42.12
2023-02-19T03:01:25.628Z,43.08
2023-02-19T03:04:00.144Z,43.20
2023-02-19T03:06:32.299Z,42.83
2023-02-19T03:09:09.398Z,43.06
2023-02-19T03:11:41.898Z,42.23
2023-02-19T03:14:16.560Z,43.24
2023-02-19T03:16:48.739Z,42.70
2023-02-19T03:19:20.499Z,43.00
2023-02-19T03:21:55.774Z,43.36
2023-02-19T03:24:29.094Z,41.08
2023-02-19T03:26:59.554Z,41.90
2023-02-19T03:29:32.095Z,42.57
2023-02-19T03:32:07.026Z,42.36
2023-02-19T03:34:41.599Z,42.46
2023-02-19T03:37:15.991Z,42.72
2023-02-19T03:39:44.126Z,43.28
2023-02-19T03:42:23.628Z,41.68
2023-02-19T03:45:07.244Z,42.46
2023-02-19T03:47:48.565Z,42.30
2023-02-19T03:50:22.189Z,41.50
2023-02-19T03:52:59.171Z,40.14
2023-02-19T03:55:32.409Z,41.72
2023-02-19T03:58:09.112Z,42.34
2023-02-19T04:00:43.196Z,42.77
2023-02-19T04:03:20.293Z,41.53
2023-02-19T04:05:53.761Z,42.36
2023-02-19T04:08:24.657Z,42.53
2023-02-19T04:10:55.438Z,41.32
2023-02-19T04:13:29.345Z,41.03
2023-02-19T04:16:02.073Z,42.51
2023-02-19T04:18:36.410Z,41.31
2023-02-19T04:21:07.214Z,41.68
2023-02-19T04:23:40.636Z,41.45
2023-02-19T04:26:11.476Z,41.67
2023-02-19T04:28:39.799Z,42.13
2023-02-19T04:31:07.694Z,42.17
2023-02-19T04:33:37.366Z,41.45
2023-02-19T04:36:05.242Z,41.52
2023-02-19T04:38:32.464Z,42.09
2023-02-19T04:40:59.774Z,41.02
2023-02-19T04:43:27.108Z,42.85
2023-02-19T04:45:54.319Z,41.21
2023-02-19T04:48:21.455Z,40.71
2023-02-19T04:50:50.028Z,40.74
2023-02-19T04:53:17.187Z,41.29
2023-02-19T04:55:44.404Z,41.27
2023-02-19T04:58:11.649Z,41.48
2023-02-19T05:00:39.052Z,41.76
2023-02-19T05:03:06.333Z,41.88
2023-02-19T05:05:34.814Z,42.26
2023-02-19T05:08:03.588Z,41.24
2023-02-19T05:10:30.948Z,41.52
2023-02-19T05:12:58.229Z,41.06
2023-02-19T05:15:25.452Z,40.79
2023-02-19T05:17:52.697Z,41.90
2023-02-19T05:20:20.054Z,41.88
2023-02-19T05:22:47.313Z,41.29
2023-02-19T05:25:16.356Z,40.20
2023-02-19T05:27:44.206Z,42.22
2023-02-19T05:30:12.331Z,42.24
2023-02-19T05:32:39.611Z,40.81
2023-02-19T05:35:07.347Z,41.27
2023-02-19T05:37:34.454Z,41.72
2023-02-19T05:40:01.674Z,42.21
2023-02-19T05:42:30.222Z,41.74
2023-02-19T05:44:57.517Z,40.85
2023-02-19T05:47:24.849Z,42.22
2023-02-19T05:49:52.048Z,42.21
2023-02-19T05:52:19.147Z,41.62
2023-02-19T05:54:46.290Z,41.30
2023-02-19T05:57:13.530Z,40.96
2023-02-19T05:59:42.403Z,41.90
2023-02-19T06:02:10.140Z,42.23
2023-02-19T06:04:37.563Z,41.62
2023-02-19T06:07:04.811Z,42.46
2023-02-19T06:09:32.072Z,41.80
2023-02-19T06:11:59.195Z,41.49
2023-02-19T06:14:26.408Z,42.20
2023-02-19T06:16:54.964Z,42.31
2023-02-19T06:19:22.121Z,42.28
2023-02-19T06:21:50.984Z,42.00
2023-02-19T06:24:18.295Z,42.57
2023-02-19T06:26:45.512Z,42.57
2023-02-19T06:29:12.700Z,41.48
2023-02-19T06:31:40.158Z,42.10
2023-02-19T06:34:09.036Z,41.35
2023-02-19T06:36:36.558Z,41.27
2023-02-19T06:39:05.604Z,42.79
2023-02-19T06:41:33.922Z,42.29
2023-02-19T06:44:02.083Z,42.21
2023-02-19T06:46:29.367Z,41.43
2023-02-19T06:48:56.572Z,41.48
2023-02-19T06:51:25.280Z,41.56
2023-02-19T06:53:52.570Z,41.56
2023-02-19T06:56:25.449Z,41.62
2023-02-19T06:58:53.607Z,41.86
2023-02-19T07:01:20.845Z,42.20
2023-02-19T07:03:48.287Z,42.52
2023-02-19T07:06:15.656Z,41.86
2023-02-19T07:08:44.445Z,41.92
2023-02-19T07:11:12.385Z,41.88
2023-02-19T07:13:39.736Z,41.91
2023-02-19T07:16:08.967Z,41.66
2023-02-19T07:18:36.153Z,42.29
2023-02-19T07:21:05.321Z,41.71
2023-02-19T07:23:32.687Z,41.68
2023-02-19T07:26:02.097Z,41.67
2023-02-19T07:28:29.559Z,41.14
2023-02-19T07:31:01.733Z,40.75
2023-02-19T07:33:29.054Z,41.04
2023-02-19T07:35:56.808Z,40.66
2023-02-19T07:38:25.752Z,40.39
2023-02-19T07:40:54.409Z,39.24
2023-02-19T07:43:24.198Z,40.99
2023-02-19T07:45:52.245Z,40.30
2023-02-19T07:48:19.836Z,40.13
2023-02-19T07:50:52.387Z,40.97
2023-02-19T07:53:20.106Z,40.63
2023-02-19T07:55:47.627Z,40.91
2023-02-19T07:58:15.380Z,39.76
2023-02-19T08:00:44.591Z,40.00
2023-02-19T08:03:12.399Z,40.59
2023-02-19T08:05:41.857Z,40.18
2023-02-19T08:08:11.148Z,41.02
2023-02-19T08:10:38.246Z,40.17
2023-02-19T08:13:05.357Z,40.78
2023-02-19T08:15:33.784Z,40.41
2023-02-19T08:18:02.485Z,40.38
2023-02-19T08:20:29.669Z,39.68
2023-02-19T08:22:56.903Z,40.86
2023-02-19T08:25:24.026Z,40.33
2023-02-19T08:27:51.198Z,39.74
2023-02-19T08:30:18.583Z,40.29
2023-02-19T08:32:45.748Z,39.76
2023-02-19T08:35:14.465Z,40.25
2023-02-19T08:37:41.626Z,39.99
2023-02-19T08:40:10.031Z,40.36
2023-02-19T08:42:37.191Z,39.84
2023-02-19T08:45:05.898Z,38.73
2023-02-19T08:47:35.586Z,38.72
2023-02-19T08:50:02.956Z,38.44
2023-02-19T08:52:32.074Z,38.57
2023-02-19T08:54:59.270Z,37.07
2023-02-19T08:57:27.350Z,35.93
2023-02-19T08:59:54.524Z,36.06
2023-02-19T09:02:21.866Z,36.38
2023-02-19T09:04:49.026Z,35.16
2023-02-19T09:07:17.367Z,36.46
2023-02-19T09:09:46.104Z,36.42
2023-02-19T09:12:14.203Z,36.33
2023-02-19T09:14:42.069Z,36.17
2023-02-19T09:17:10.058Z,35.85
2023-02-19T09:19:37.597Z,37.79
2023-02-19T09:22:05.864Z,37.66
2023-02-19T09:24:33.148Z,36.77
2023-02-19T09:27:01.867Z,36.35
2023-02-19T09:29:29.630Z,35.73
2023-02-19T09:31:58.189Z,34.50
2023-02-19T09:34:26.880Z,33.57
2023-02-19T09:36:54.101Z,34.31
2023-02-19T09:39:21.455Z,30.94
2023-02-19T09:41:52.848Z,32.04
2023-02-19T09:44:28.447Z,32.05
2023-02-19T09:46:57.182Z,31.31
2023-02-19T09:49:32.329Z,31.84
2023-02-19T09:52:07.992Z,31.21
2023-02-19T09:54:38.341Z,31.46
2023-02-19T09:57:14.254Z,31.08
2023-02-19T09:59:49.095Z,31.26
2023-02-19T10:02:18.554Z,31.19
2023-02-19T10:04:48.119Z,30.47
2023-02-19T10:07:18.212Z,30.54
2023-02-19T10:09:48.732Z,31.23
2023-02-19T10:12:19.658Z,30.21
2023-02-19T10:14:52.855Z,31.00
2023-02-19T10:17:27.055Z,29.66
2023-02-19T10:19:54.794Z,30.63
2023-02-19T10:22:22.000Z,29.69
2023-02-19T10:24:53.343Z,30.09
2023-02-19T10:27:20.705Z,31.08
2023-02-19T10:29:50.212Z,31.49
2023-02-19T10:32:20.855Z,30.91
2023-02-19T10:34:48.149Z,31.96
2023-02-19T10:37:18.644Z,30.69
2023-02-19T10:39:49.757Z,31.96
2023-02-19T10:42:22.865Z,31.95
2023-02-19T10:44:56.549Z,31.45
2023-02-19T10:47:27.241Z,31.32
2023-02-19T10:49:59.446Z,31.05
2023-02-19T10:52:30.820Z,30.90
2023-02-19T10:55:15.636Z,31.12
2023-02-19T10:57:43.332Z,31.04
2023-02-19T11:00:24.546Z,29.80
2023-02-19T11:03:19.017Z,28.71
2023-02-19T11:06:00.159Z,29.66
2023-02-19T11:08:28.174Z,29.92
2023-02-19T11:10:55.755Z,31.20
2023-02-19T11:13:30.008Z,30.99
2023-02-19T11:16:00.503Z,30.11
2023-02-19T11:18:31.025Z,30.07
2023-02-19T11:21:01.936Z,31.32
2023-02-19T11:23:32.647Z,29.84
2023-02-19T11:26:04.307Z,28.99
2023-02-19T11:28:35.288Z,31.35
2023-02-19T11:31:26.313Z,29.91
2023-02-19T11:33:58.952Z,29.45
2023-02-19T11:36:31.909Z,31.48
2023-02-19T11:39:20.527Z,29.80
2023-02-19T11:42:10.560Z,30.82
2023-02-19T11:44:52.631Z,29.50
2023-02-19T11:47:52.048Z,28.92
2023-02-19T11:50:27.388Z,30.97
2023-02-19T11:53:14.456Z,31.63
2023-02-19T11:55:57.535Z,31.50
2023-02-19T11:58:49.190Z,31.24
2023-02-19T12:01:27.352Z,32.26
2023-02-19T12:04:20.171Z,31.88
2023-02-19T12:07:03.369Z,31.11
2023-02-19T12:09:43.721Z,32.03
2023-02-19T12:12:42.101Z,31.87
2023-02-19T12:18:50.170Z,33.17
2023-02-19T12:21:58.372Z,30.43
2023-02-19T12:24:51.240Z,33.16
2023-02-19T12:27:36.443Z,33.58
2023-02-19T12:30:25.652Z,31.59
2023-02-19T12:33:15.649Z,32.37
2023-02-19T12:35:52.508Z,31.57
2023-02-19T12:38:27.290Z,31.55
2023-02-19T12:41:18.524Z,31.17
2023-02-19T12:43:54.747Z,32.19
2023-02-19T12:46:29.769Z,31.39
2023-02-19T12:49:05.301Z,30.97
2023-02-19T12:51:39.995Z,31.81
2023-02-19T12:54:15.310Z,32.74
2023-02-19T12:56:52.616Z,31.93
2023-02-19T12:59:29.218Z,31.77
2023-02-19T13:02:06.229Z,33.67
2023-02-19T13:04:43.518Z,32.95
2023-02-19T13:07:17.706Z,32.03
2023-02-19T13:09:50.815Z,31.47
2023-02-19T13:12:25.077Z,32.57
2023-02-19T13:14:58.097Z,32.65
2023-02-19T13:17:32.284Z,31.79
2023-02-19T13:20:13.819Z,33.41
2023-02-19T13:22:50.750Z,32.91
2023-02-19T13:25:21.276Z,31.99
2023-02-19T13:28:20.477Z,33.26
2023-02-19T13:31:25.246Z,33.07
2023-02-19T13:34:07.482Z,32.68
2023-02-19T13:36:37.216Z,32.14
2023-02-19T13:39:06.733Z,32.03
2023-02-19T13:41:41.174Z,32.88
2023-02-19T13:44:21.406Z,32.33
2023-02-19T13:46:50.934Z,32.11
2023-02-19T13:49:37.860Z,31.61
2023-02-19T13:52:46.887Z,31.74
2023-02-19T13:55:50.272Z,31.56
2023-02-19T13:58:58.649Z,31.88
2023-02-19T14:02:13.141Z,31.65
2023-02-19T14:05:00.458Z,30.99
2023-02-19T14:07:53.854Z,32.80
2023-02-19T14:10:52.333Z,32.90
2023-02-19T14:13:49.029Z,32.20
2023-02-19T14:16:48.693Z,30.91
2023-02-19T14:19:41.496Z,31.52
2023-02-19T14:22:41.672Z,31.69
2023-02-19T14:25:33.691Z,30.68
2023-02-19T14:28:06.378Z,30.72
2023-02-19T14:30:40.934Z,30.00
2023-02-19T14:33:11.490Z,29.82
2023-02-19T14:35:43.876Z,30.25
2023-02-19T14:38:18.249Z,30.72
2023-02-19T14:40:48.967Z,30.22
2023-02-19T14:43:19.769Z,30.00
2023-02-19T14:45:53.369Z,30.21
2023-02-19T14:48:28.341Z,29.40
2023-02-19T14:51:02.815Z,30.23
2023-02-19T14:53:35.011Z,28.45
2023-02-19T14:56:04.170Z,29.77
2023-02-19T14:58:34.430Z,29.78
2023-02-19T15:01:01.509Z,28.39
2023-02-19T15:03:32.880Z,29.53
2023-02-19T15:06:05.373Z,29.25
2023-02-19T15:08:37.849Z,28.55
2023-02-19T15:11:12.148Z,29.16
2023-02-19T15:13:40.640Z,29.77
2023-02-19T15:16:08.004Z,29.85
2023-02-19T15:18:35.626Z,30.88
2023-02-19T15:21:04.948Z,30.90
2023-02-19T15:23:34.932Z,31.22
2023-02-19T15:26:02.979Z,31.77
2023-02-19T15:28:34.314Z,32.15
2023-02-19T15:31:14.201Z,31.94
2023-02-19T15:33:49.819Z,32.60
2023-02-19T15:36:26.326Z,32.32
2023-02-19T15:38:58.056Z,32.58
2023-02-19T15:41:28.720Z,32.61
2023-02-19T15:44:10.895Z,31.94
2023-02-19T15:46:40.116Z,31.99
2023-02-19T15:49:16.497Z,31.77
2023-02-19T15:51:51.096Z,31.93
2023-02-19T15:54:27.627Z,31.33
2023-02-19T15:57:01.217Z,31.13
2023-02-19T15:59:40.398Z,31.42
2023-02-19T16:02:13.895Z,31.14
2023-02-19T16:04:44.485Z,31.00
2023-02-19T16:07:24.683Z,31.47
2023-02-19T16:10:18.161Z,31.74
2023-02-19T16:12:55.434Z,31.32
2023-02-19T16:15:24.597Z,32.00
2023-02-19T16:17:52.265Z,31.68
2023-02-19T16:20:26.818Z,31.95
2023-02-19T16:23:01.800Z,32.54
2023-02-19T16:25:36.839Z,32.71
2023-02-19T16:28:12.695Z,32.91
2023-02-19T16:30:42.458Z,32.46
2023-02-19T16:33:36.999Z,32.12
2023-02-19T16:36:23.259Z,32.56
2023-02-19T16:39:25.918Z,32.29
2023-02-19T16:42:17.064Z,33.59
2023-02-19T16:44:45.672Z,33.07
2023-02-19T16:47:33.048Z,33.01
2023-02-19T16:50:04.040Z,33.42
2023-02-19T16:52:31.417Z,33.73
2023-02-19T16:54:58.619Z,33.80
2023-02-19T16:57:25.874Z,33.79
2023-02-19T16:59:53.308Z,34.16
2023-02-19T17:02:24.558Z,33.84
2023-02-19T17:04:53.615Z,34.48
2023-02-19T17:07:21.854Z,34.65
2023-02-19T17:09:49.037Z,34.88
2023-02-19T17:12:17.294Z,35.46
2023-02-19T17:14:44.976Z,34.59
2023-02-19T17:17:12.223Z,35.02
2023-02-19T17:19:39.433Z,35.32
2023-02-19T17:22:08.694Z,34.72
2023-02-19T17:24:35.896Z,35.47
2023-02-19T17:27:03.333Z,34.71
2023-02-19T17:29:30.714Z,35.09
2023-02-19T17:31:57.926Z,35.65
2023-02-19T17:34:25.360Z,35.43
2023-02-19T17:36:52.533Z,35.23
2023-02-19T17:39:21.333Z,35.74
2023-02-19T17:41:48.495Z,35.45
2023-02-19T17:44:16.293Z,35.68
2023-02-19T17:46:45.976Z,35.51
2023-02-19T17:49:13.484Z,35.50
2023-02-19T17:51:40.588Z,35.89
2023-02-19T17:54:08.476Z,35.77
2023-02-19T17:56:37.296Z,35.44
2023-02-19T17:59:04.496Z,35.91
2023-02-19T18:01:31.919Z,35.60
2023-02-19T18:03:59.237Z,35.95
2023-02-19T18:06:26.454Z,35.97
2023-02-19T18:08:54.175Z,36.13
2023-02-19T18:11:23.039Z,35.70
2023-02-19T18:13:52.702Z,35.44
2023-02-19T18:16:20.325Z,35.54
2023-02-19T18:18:47.554Z,35.57
2023-02-19T18:21:15.414Z,35.73
2023-02-19T18:23:42.900Z,36.23
2023-02-19T18:26:11.329Z,36.16
2023-02-19T18:28:39.058Z,35.87
2023-02-19T18:31:08.330Z,36.01
2023-02-19T18:33:40.979Z,35.80
2023-02-19T18:36:10.717Z,36.26
2023-02-19T18:38:41.834Z,36.21
2023-02-19T18:41:11.906Z,36.44
2023-02-19T18:43:40.783Z,36.41
2023-02-19T18:46:10.211Z,36.48
2023-02-19T18:48:37.850Z,36.09
2023-02-19T18:51:05.860Z,36.41
2023-02-19T18:53:33.855Z,36.51
2023-02-19T18:56:01.133Z,36.30
2023-02-19T18:58:28.487Z,36.37
2023-02-19T19:00:55.826Z,36.68
2023-02-19T19:03:24.534Z,36.51
2023-02-19T19:05:51.779Z,36.41
2023-02-19T19:08:19.036Z,36.46
2023-02-19T19:10:46.316Z,36.16
2023-02-19T19:13:13.698Z,36.05
2023-02-19T19:15:40.935Z,35.82
2023-02-19T19:18:08.490Z,35.78
2023-02-19T19:20:37.202Z,35.77
2023-02-19T19:23:04.377Z,35.76
2023-02-19T19:25:31.597Z,35.84
2023-02-19T19:27:58.903Z,35.51
2023-02-19T19:30:26.198Z,35.45
2023-02-19T19:32:53.913Z,35.78
2023-02-19T19:35:22.421Z,36.22
2023-02-19T19:37:51.460Z,36.52
2023-02-19T19:40:19.816Z,36.54
2023-02-19T19:42:47.701Z,36.76
2023-02-19T19:45:15.727Z,36.90
2023-02-19T19:47:43.090Z,36.81
2023-02-19T19:50:11.203Z,36.90
2023-02-19T19:52:38.496Z,37.06
2023-02-19T19:55:08.142Z,37.17
2023-02-19T19:57:35.401Z,36.98
2023-02-19T20:00:03.224Z,37.12
2023-02-19T20:02:30.525Z,37.31
2023-02-19T20:04:57.698Z,37.37
2023-02-19T20:07:24.819Z,37.60
2023-02-19T20:09:52.115Z,37.75
2023-02-19T20:12:20.794Z,37.66
2023-02-19T20:14:47.963Z,37.99
2023-02-19T20:17:15.795Z,38.15
2023-02-19T20:19:43.123Z,37.81
2023-02-19T20:22:10.337Z,37.91
2023-02-19T20:24:37.794Z,37.90
2023-02-19T20:27:05.315Z,37.71
2023-02-19T20:29:35.002Z,37.75
2023-02-19T20:32:02.760Z,37.65
2023-02-19T20:34:31.111Z,37.75
2023-02-19T20:36:59.213Z,37.55
2023-02-19T20:39:27.033Z,37.38
2023-02-19T20:41:54.573Z,37.34
2023-02-19T20:44:21.820Z,37.21
2023-02-19T20:46:52.777Z,36.96
2023-02-19T20:49:22.067Z,37.18
2023-02-19T20:51:51.312Z,37.04
2023-02-19T20:54:19.937Z,36.89
2023-02-19T20:57:06.503Z,37.01
2023-02-19T20:59:54.968Z,36.25
2023-02-19T21:02:29.042Z,36.28
2023-02-19T21:04:57.463Z,36.38
2023-02-19T21:07:26.092Z,35.96
2023-02-19T21:10:20.847Z,36.13
2023-02-19T21:13:33.631Z,35.96
2023-02-19T21:16:02.956Z,36.38
2023-02-19T21:18:31.717Z,35.89
2023-02-19T21:20:59.523Z,36.20
2023-02-19T21:23:27.033Z,36.63
2023-02-19T21:25:54.761Z,36.41
2023-02-19T21:28:22.035Z,36.63
2023-02-19T21:30:49.917Z,36.83
2023-02-19T21:33:17.801Z,36.81
2023-02-19T21:35:46.797Z,37.13
2023-02-19T21:38:18.959Z,37.35
2023-02-19T21:40:46.373Z,37.43
2023-02-19T21:43:13.594Z,37.53
2023-02-19T21:45:40.818Z,37.59
2023-02-19T21:48:09.375Z,37.21
2023-02-19T21:50:36.554Z,37.34
2023-02-19T21:53:05.354Z,37.64
2023-02-19T21:55:32.672Z,37.40
2023-02-19T21:57:59.751Z,37.40
2023-02-19T22:00:26.891Z,37.51
2023-02-19T22:02:54.037Z,37.03
2023-02-19T22:05:21.194Z,37.47
2023-02-19T22:07:48.434Z,37.03
2023-02-19T22:10:17.312Z,36.91
2023-02-19T22:12:44.673Z,37.03
2023-02-19T22:15:11.794Z,36.95
2023-02-19T22:17:39.270Z,36.81
2023-02-19T22:20:08.115Z,36.74
2023-02-19T22:22:35.191Z,37.05
2023-02-19T22:25:02.397Z,36.67
2023-02-19T22:27:31.034Z,36.71
2023-02-19T22:29:58.188Z,36.78
2023-02-19T22:32:25.468Z,36.58
2023-02-19T22:34:52.809Z,36.50
2023-02-19T22:37:20.250Z,36.47
2023-02-19T22:39:47.587Z,36.12
2023-02-19T22:42:15.046Z,36.25
2023-02-19T22:44:44.533Z,36.41
2023-02-19T22:47:11.747Z,36.36
2023-02-19T22:49:39.653Z,35.97
2023-02-19T22:52:09.933Z,36.38
2023-02-19T22:54:37.505Z,36.64
2023-02-19T22:57:05.287Z,36.27
2023-02-19T22:59:32.730Z,36.59
2023-02-19T23:02:01.481Z,36.41
2023-02-19T23:04:28.664Z,36.40
2023-02-19T23:06:55.831Z,36.33
2023-02-19T23:09:25.856Z,36.69
2023-02-19T23:11:53.862Z,36.32
2023-02-19T23:14:22.359Z,36.79
2023-02-19T23:16:49.597Z,36.41
2023-02-19T23:19:18.398Z,36.98
2023-02-19T23:21:45.975Z,36.79
2023-02-19T23:24:14.782Z,36.71
2023-02-19T23:26:43.558Z,36.60
2023-02-19T23:29:11.021Z,36.38
2023-02-19T23:31:38.332Z,36.54
2023-02-19T23:34:05.635Z,36.61
2023-02-19T23:36:34.340Z,36.20
2023-02-19T23:39:01.494Z,36.33
2023-02-19T23:41:28.950Z,36.37
2023-02-19T23:43:56.073Z,36.59
2023-02-19T23:46:23.162Z,35.91
2023-02-19T23:48:50.249Z,35.73
2023-02-19T23:51:17.389Z,35.69
2023-02-19T23:53:46.009Z,35.76
2023-02-19T23:56:13.417Z,36.00
2023-02-19T23:58:40.969Z,36.20
